sensor_id;sensor_type;location;lat;lon;timestamp;P1;durP1;ratioP1;P2;durP2;ratioP2
74344;SDS011;62776;50.518;6.732;2024-03-23T00:52:08;5.18;;;2.85;;
74344;SDS011;62776;50.518;6.732;2024-03-23T00:54:55;3.17;;;2.70;;
74344;SDS011;62776;50.518;6.732;2024-03-23T00:57:41;2.58;;;1.88;;
74344;SDS011;62776;50.518;6.732;2024-03-23T01:00:27;3.35;;;2.30;;
74344;SDS011;62776;50.518;6.732;2024-03-23T01:03:13;7.22;;;3.40;;
74344;SDS011;62776;50.518;6.732;2024-03-23T01:06:03;4.68;;;2.58;;
74344;SDS011;62776;50.518;6.732;2024-03-23T01:08:49;4.85;;;2.72;;
74344;SDS011;62776;50.518;6.732;2024-03-23T01:11:35;4.30;;;2.88;;
74344;SDS011;62776;50.518;6.732;2024-03-23T01:14:22;5.47;;;2.30;;
74344;SDS011;62776;50.518;6.732;2024-03-23T01:17:10;4.45;;;2.63;;
74344;SDS011;62776;50.518;6.732;2024-03-23T01:19:56;7.07;;;2.92;;
74344;SDS011;62776;50.518;6.732;2024-03-23T01:22:42;4.28;;;2.65;;
74344;SDS011;62776;50.518;6.732;2024-03-23T01:25:31;4.35;;;2.50;;
74344;SDS011;62776;50.518;6.732;2024-03-23T01:28:17;4.55;;;2.60;;
74344;SDS011;62776;50.518;6.732;2024-03-23T01:31:04;3.35;;;2.30;;
74344;SDS011;62776;50.518;6.732;2024-03-23T01:33:50;2.35;;;1.50;;
74344;SDS011;62776;50.518;6.732;2024-03-23T01:36:37;4.07;;;2.53;;
74344;SDS011;62776;50.518;6.732;2024-03-23T01:39:24;3.35;;;2.33;;
74344;SDS011;62776;50.518;6.732;2024-03-23T01:42:10;3.42;;;2.58;;
74344;SDS011;62776;50.518;6.732;2024-03-23T01:44:56;3.05;;;2.25;;
74344;SDS011;62776;50.518;6.732;2024-03-23T01:47:43;6.28;;;2.33;;
74344;SDS011;62776;50.518;6.732;2024-03-23T01:50:31;4.57;;;3.10;;
74344;SDS011;62776;50.518;6.732;2024-03-23T01:53:20;4.90;;;2.33;;
74344;SDS011;62776;50.518;6.732;2024-03-23T01:56:08;8.77;;;2.97;;
74344;SDS011;62776;50.518;6.732;2024-03-23T01:58:54;7.72;;;2.80;;
74344;SDS011;62776;50.518;6.732;2024-03-23T02:01:40;1.92;;;1.77;;
74344;SDS011;62776;50.518;6.732;2024-03-23T02:04:26;3.42;;;2.25;;
74344;SDS011;62776;50.518;6.732;2024-03-23T02:07:13;3.22;;;2.13;;
74344;SDS011;62776;50.518;6.732;2024-03-23T02:09:59;2.88;;;1.88;;
74344;SDS011;62776;50.518;6.732;2024-03-23T02:12:47;1.77;;;1.63;;
74344;SDS011;62776;50.518;6.732;2024-03-23T02:15:33;3.45;;;2.50;;
74344;SDS011;62776;50.518;6.732;2024-03-23T02:18:19;5.70;;;2.95;;
74344;SDS011;62776;50.518;6.732;2024-03-23T02:21:05;3.45;;;2.70;;
74344;SDS011;62776;50.518;6.732;2024-03-23T02:23:51;4.22;;;2.95;;
74344;SDS011;62776;50.518;6.732;2024-03-23T02:26:38;1.95;;;1.73;;
74344;SDS011;62776;50.518;6.732;2024-03-23T02:29:27;2.97;;;1.85;;
74344;SDS011;62776;50.518;6.732;2024-03-23T02:32:14;2.15;;;1.55;;
74344;SDS011;62776;50.518;6.732;2024-03-23T02:35:01;2.40;;;1.50;;
74344;SDS011;62776;50.518;6.732;2024-03-23T02:37:47;2.03;;;1.88;;
74344;SDS011;62776;50.518;6.732;2024-03-23T02:40:35;3.28;;;1.75;;
74344;SDS011;62776;50.518;6.732;2024-03-23T02:43:22;4.47;;;2.03;;
74344;SDS011;62776;50.518;6.732;2024-03-23T02:46:08;3.25;;;1.70;;
74344;SDS011;62776;50.518;6.732;2024-03-23T02:48:54;2.30;;;2.00;;
74344;SDS011;62776;50.518;6.732;2024-03-23T02:51:42;2.00;;;1.33;;
74344;SDS011;62776;50.518;6.732;2024-03-23T02:54:30;1.80;;;1.70;;
74344;SDS011;62776;50.518;6.732;2024-03-23T02:57:16;1.90;;;1.73;;
74344;SDS011;62776;50.518;6.732;2024-03-23T03:00:03;2.63;;;2.35;;
74344;SDS011;62776;50.518;6.732;2024-03-23T03:02:50;2.72;;;2.30;;
74344;SDS011;62776;50.518;6.732;2024-03-23T03:05:36;2.50;;;1.73;;
74344;SDS011;62776;50.518;6.732;2024-03-23T03:08:22;2.13;;;1.92;;
74344;SDS011;62776;50.518;6.732;2024-03-23T03:11:09;5.93;;;3.03;;
74344;SDS011;62776;50.518;6.732;2024-03-23T03:13:55;3.13;;;1.67;;
74344;SDS011;62776;50.518;6.732;2024-03-23T03:16:41;3.88;;;2.35;;
74344;SDS011;62776;50.518;6.732;2024-03-23T03:19:27;3.90;;;2.10;;
74344;SDS011;62776;50.518;6.732;2024-03-23T03:22:13;5.00;;;2.50;;
74344;SDS011;62776;50.518;6.732;2024-03-23T03:43:15;4.72;;;2.50;;
74344;SDS011;62776;50.518;6.732;2024-03-23T03:46:02;3.00;;;2.40;;
74344;SDS011;62776;50.518;6.732;2024-03-23T03:48:48;4.28;;;2.70;;
74344;SDS011;62776;50.518;6.732;2024-03-23T03:51:34;5.03;;;3.08;;
74344;SDS011;62776;50.518;6.732;2024-03-23T03:54:21;6.80;;;3.00;;
74344;SDS011;62776;50.518;6.732;2024-03-23T03:57:07;5.28;;;2.75;;
74344;SDS011;62776;50.518;6.732;2024-03-23T03:59:55;4.00;;;2.85;;
74344;SDS011;62776;50.518;6.732;2024-03-23T04:02:41;6.75;;;2.75;;
74344;SDS011;62776;50.518;6.732;2024-03-23T04:05:27;7.40;;;2.80;;
74344;SDS011;62776;50.518;6.732;2024-03-23T04:08:13;6.85;;;3.25;;
74344;SDS011;62776;50.518;6.732;2024-03-23T04:11:01;5.65;;;3.20;;
74344;SDS011;62776;50.518;6.732;2024-03-23T04:13:47;4.55;;;2.60;;
74344;SDS011;62776;50.518;6.732;2024-03-23T04:16:34;10.07;;;4.00;;
74344;SDS011;62776;50.518;6.732;2024-03-23T04:19:21;4.65;;;3.10;;
74344;SDS011;62776;50.518;6.732;2024-03-23T04:22:09;7.60;;;3.38;;
74344;SDS011;62776;50.518;6.732;2024-03-23T04:24:56;6.50;;;2.95;;
74344;SDS011;62776;50.518;6.732;2024-03-23T04:27:45;7.78;;;2.55;;
74344;SDS011;62776;50.518;6.732;2024-03-23T04:30:31;5.07;;;2.85;;
74344;SDS011;62776;50.518;6.732;2024-03-23T04:33:19;5.85;;;3.47;;
74344;SDS011;62776;50.518;6.732;2024-03-23T04:36:05;7.82;;;3.47;;
74344;SDS011;62776;50.518;6.732;2024-03-23T04:38:53;5.97;;;2.90;;
74344;SDS011;62776;50.518;6.732;2024-03-23T04:41:39;5.43;;;3.40;;
74344;SDS011;62776;50.518;6.732;2024-03-23T04:44:26;8.68;;;4.50;;
74344;SDS011;62776;50.518;6.732;2024-03-23T04:47:13;7.57;;;3.47;;
74344;SDS011;62776;50.518;6.732;2024-03-23T04:49:59;8.98;;;3.00;;
74344;SDS011;62776;50.518;6.732;2024-03-23T04:52:46;8.38;;;3.55;;
74344;SDS011;62776;50.518;6.732;2024-03-23T04:55:32;10.88;;;3.92;;
74344;SDS011;62776;50.518;6.732;2024-03-23T04:58:18;7.20;;;3.72;;
74344;SDS011;62776;50.518;6.732;2024-03-23T05:01:04;8.27;;;3.92;;
74344;SDS011;62776;50.518;6.732;2024-03-23T05:03:52;7.38;;;4.30;;
74344;SDS011;62776;50.518;6.732;2024-03-23T05:06:39;9.60;;;3.38;;
74344;SDS011;62776;50.518;6.732;2024-03-23T05:09:25;6.22;;;3.83;;
74344;SDS011;62776;50.518;6.732;2024-03-23T05:12:15;6.45;;;3.22;;
74344;SDS011;62776;50.518;6.732;2024-03-23T05:15:01;10.93;;;4.53;;
74344;SDS011;62776;50.518;6.732;2024-03-23T05:17:48;4.90;;;3.67;;
74344;SDS011;62776;50.518;6.732;2024-03-23T05:20:34;8.65;;;4.65;;
74344;SDS011;62776;50.518;6.732;2024-03-23T05:23:20;7.22;;;4.32;;
74344;SDS011;62776;50.518;6.732;2024-03-23T05:26:07;7.72;;;3.75;;
74344;SDS011;62776;50.518;6.732;2024-03-23T05:28:55;6.80;;;4.15;;
74344;SDS011;62776;50.518;6.732;2024-03-23T05:31:41;8.40;;;4.70;;
74344;SDS011;62776;50.518;6.732;2024-03-23T05:34:27;8.73;;;4.22;;
74344;SDS011;62776;50.518;6.732;2024-03-23T05:37:14;6.32;;;4.38;;
74344;SDS011;62776;50.518;6.732;2024-03-23T05:40:00;8.10;;;4.18;;
74344;SDS011;62776;50.518;6.732;2024-03-23T05:42:48;6.18;;;3.90;;
74344;SDS011;62776;50.518;6.732;2024-03-23T05:45:38;9.18;;;5.25;;
74344;SDS011;62776;50.518;6.732;2024-03-23T05:48:26;4.28;;;2.95;;
74344;SDS011;62776;50.518;6.732;2024-03-23T05:51:13;8.43;;;3.22;;
74344;SDS011;62776;50.518;6.732;2024-03-23T05:53:59;5.32;;;3.22;;
74344;SDS011;62776;50.518;6.732;2024-03-23T05:56:46;5.38;;;3.05;;
74344;SDS011;62776;50.518;6.732;2024-03-23T05:59:32;4.53;;;2.85;;
74344;SDS011;62776;50.518;6.732;2024-03-23T06:02:20;6.03;;;3.08;;
74344;SDS011;62776;50.518;6.732;2024-03-23T06:05:07;5.03;;;2.78;;
74344;SDS011;62776;50.518;6.732;2024-03-23T06:07:54;4.32;;;2.75;;
74344;SDS011;62776;50.518;6.732;2024-03-23T06:10:40;5.47;;;3.20;;
74344;SDS011;62776;50.518;6.732;2024-03-23T06:13:26;4.68;;;2.88;;
74344;SDS011;62776;50.518;6.732;2024-03-23T06:16:15;6.47;;;3.00;;
74344;SDS011;62776;50.518;6.732;2024-03-23T06:19:01;3.25;;;2.25;;
74344;SDS011;62776;50.518;6.732;2024-03-23T06:21:49;6.00;;;3.10;;
74344;SDS011;62776;50.518;6.732;2024-03-23T06:24:35;7.50;;;2.70;;
74344;SDS011;62776;50.518;6.732;2024-03-23T06:27:22;7.82;;;3.40;;
74344;SDS011;62776;50.518;6.732;2024-03-23T06:30:08;3.78;;;2.53;;
74344;SDS011;62776;50.518;6.732;2024-03-23T06:32:55;5.45;;;3.47;;
74344;SDS011;62776;50.518;6.732;2024-03-23T06:35:41;3.90;;;2.58;;
74344;SDS011;62776;50.518;6.732;2024-03-23T06:38:28;5.43;;;4.10;;
74344;SDS011;62776;50.518;6.732;2024-03-23T06:41:14;6.82;;;3.78;;
74344;SDS011;62776;50.518;6.732;2024-03-23T06:44:01;4.85;;;3.20;;
74344;SDS011;62776;50.518;6.732;2024-03-23T06:46:47;5.53;;;3.30;;
74344;SDS011;62776;50.518;6.732;2024-03-23T06:49:34;6.25;;;3.10;;
74344;SDS011;62776;50.518;6.732;2024-03-23T06:52:20;7.50;;;3.47;;
74344;SDS011;62776;50.518;6.732;2024-03-23T06:55:06;6.97;;;3.17;;
74344;SDS011;62776;50.518;6.732;2024-03-23T06:57:54;6.80;;;4.18;;
74344;SDS011;62776;50.518;6.732;2024-03-23T07:00:41;5.35;;;4.22;;
74344;SDS011;62776;50.518;6.732;2024-03-23T07:03:27;6.82;;;4.25;;
74344;SDS011;62776;50.518;6.732;2024-03-23T07:06:14;8.55;;;3.95;;
74344;SDS011;62776;50.518;6.732;2024-03-23T07:09:00;10.80;;;4.50;;
74344;SDS011;62776;50.518;6.732;2024-03-23T07:11:46;8.00;;;3.85;;
74344;SDS011;62776;50.518;6.732;2024-03-23T07:14:32;7.97;;;4.72;;
74344;SDS011;62776;50.518;6.732;2024-03-23T07:17:19;7.97;;;5.50;;
74344;SDS011;62776;50.518;6.732;2024-03-23T07:20:05;4.00;;;3.53;;
74344;SDS011;62776;50.518;6.732;2024-03-23T07:22:55;6.13;;;4.40;;
74344;SDS011;62776;50.518;6.732;2024-03-23T07:25:42;6.40;;;4.68;;
74344;SDS011;62776;50.518;6.732;2024-03-23T07:28:28;7.07;;;4.22;;
74344;SDS011;62776;50.518;6.732;2024-03-23T07:31:17;8.60;;;4.57;;
74344;SDS011;62776;50.518;6.732;2024-03-23T07:34:03;6.68;;;4.05;;
74344;SDS011;62776;50.518;6.732;2024-03-23T07:36:51;6.95;;;4.05;;
74344;SDS011;62776;50.518;6.732;2024-03-23T07:39:37;6.57;;;4.57;;
74344;SDS011;62776;50.518;6.732;2024-03-23T07:42:24;7.00;;;3.72;;
74344;SDS011;62776;50.518;6.732;2024-03-23T07:45:11;5.70;;;3.53;;
74344;SDS011;62776;50.518;6.732;2024-03-23T07:47:57;6.32;;;3.85;;
74344;SDS011;62776;50.518;6.732;2024-03-23T07:50:43;7.35;;;4.10;;
74344;SDS011;62776;50.518;6.732;2024-03-23T07:53:30;6.30;;;4.03;;
74344;SDS011;62776;50.518;6.732;2024-03-23T07:56:17;3.63;;;2.92;;
74344;SDS011;62776;50.518;6.732;2024-03-23T07:59:08;6.75;;;3.75;;
74344;SDS011;62776;50.518;6.732;2024-03-23T08:01:54;5.80;;;4.03;;
74344;SDS011;62776;50.518;6.732;2024-03-23T08:04:42;9.65;;;4.22;;
74344;SDS011;62776;50.518;6.732;2024-03-23T08:07:28;4.93;;;3.80;;
74344;SDS011;62776;50.518;6.732;2024-03-23T08:10:15;5.40;;;4.03;;
74344;SDS011;62776;50.518;6.732;2024-03-23T08:13:03;7.45;;;4.07;;
74344;SDS011;62776;50.518;6.732;2024-03-23T08:15:50;5.60;;;3.92;;
74344;SDS011;62776;50.518;6.732;2024-03-23T08:18:37;3.83;;;3.10;;
74344;SDS011;62776;50.518;6.732;2024-03-23T08:21:23;5.10;;;4.07;;
74344;SDS011;62776;50.518;6.732;2024-03-23T08:24:11;3.85;;;2.72;;
74344;SDS011;62776;50.518;6.732;2024-03-23T08:26:57;4.43;;;2.75;;
74344;SDS011;62776;50.518;6.732;2024-03-23T08:29:45;3.25;;;2.55;;
74344;SDS011;62776;50.518;6.732;2024-03-23T08:32:31;5.32;;;2.40;;
74344;SDS011;62776;50.518;6.732;2024-03-23T08:35:17;4.15;;;2.45;;
74344;SDS011;62776;50.518;6.732;2024-03-23T08:38:03;2.47;;;2.28;;
74344;SDS011;62776;50.518;6.732;2024-03-23T08:41:03;4.05;;;2.42;;
74344;SDS011;62776;50.518;6.732;2024-03-23T08:46:39;2.22;;;1.70;;
74344;SDS011;62776;50.518;6.732;2024-03-23T08:49:26;4.55;;;2.20;;
74344;SDS011;62776;50.518;6.732;2024-03-23T08:52:12;2.83;;;1.83;;
74344;SDS011;62776;50.518;6.732;2024-03-23T08:54:59;2.85;;;1.95;;
74344;SDS011;62776;50.518;6.732;2024-03-23T08:57:46;2.97;;;2.20;;
74344;SDS011;62776;50.518;6.732;2024-03-23T09:00:32;3.10;;;2.22;;
74344;SDS011;62776;50.518;6.732;2024-03-23T09:03:19;2.60;;;1.60;;
74344;SDS011;62776;50.518;6.732;2024-03-23T09:06:09;5.43;;;2.72;;
74344;SDS011;62776;50.518;6.732;2024-03-23T09:08:57;4.20;;;2.28;;
74344;SDS011;62776;50.518;6.732;2024-03-23T09:11:45;3.40;;;2.10;;
74344;SDS011;62776;50.518;6.732;2024-03-23T09:14:31;1.70;;;1.23;;
74344;SDS011;62776;50.518;6.732;2024-03-23T09:17:21;2.88;;;1.92;;
74344;SDS011;62776;50.518;6.732;2024-03-23T09:20:07;3.55;;;1.90;;
74344;SDS011;62776;50.518;6.732;2024-03-23T09:22:55;3.97;;;2.20;;
74344;SDS011;62776;50.518;6.732;2024-03-23T09:25:41;2.30;;;1.58;;
74344;SDS011;62776;50.518;6.732;2024-03-23T09:28:27;3.35;;;2.05;;
74344;SDS011;62776;50.518;6.732;2024-03-23T09:31:15;3.42;;;2.42;;
74344;SDS011;62776;50.518;6.732;2024-03-23T09:34:02;3.10;;;1.90;;
74344;SDS011;62776;50.518;6.732;2024-03-23T09:36:51;4.82;;;2.13;;
74344;SDS011;62776;50.518;6.732;2024-03-23T09:39:39;2.95;;;1.55;;
74344;SDS011;62776;50.518;6.732;2024-03-23T09:42:26;1.30;;;1.20;;
74344;SDS011;62776;50.518;6.732;2024-03-23T09:45:26;3.00;;;1.98;;
74344;SDS011;62776;50.518;6.732;2024-03-23T09:48:17;3.75;;;1.90;;
74344;SDS011;62776;50.518;6.732;2024-03-23T09:51:03;2.10;;;1.60;;
74344;SDS011;62776;50.518;6.732;2024-03-23T09:53:54;2.13;;;1.42;;
74344;SDS011;62776;50.518;6.732;2024-03-23T09:56:40;1.73;;;1.63;;
74344;SDS011;62776;50.518;6.732;2024-03-23T09:59:27;2.47;;;1.88;;
74344;SDS011;62776;50.518;6.732;2024-03-23T10:02:17;3.35;;;1.70;;
74344;SDS011;62776;50.518;6.732;2024-03-23T10:05:11;2.33;;;2.08;;
74344;SDS011;62776;50.518;6.732;2024-03-23T10:11:11;3.45;;;2.00;;
74344;SDS011;62776;50.518;6.732;2024-03-23T10:14:00;1.98;;;1.80;;
74344;SDS011;62776;50.518;6.732;2024-03-23T10:16:46;2.42;;;2.13;;
74344;SDS011;62776;50.518;6.732;2024-03-23T10:19:32;2.38;;;2.08;;
74344;SDS011;62776;50.518;6.732;2024-03-23T10:22:19;0.98;;;0.77;;
74344;SDS011;62776;50.518;6.732;2024-03-23T10:25:08;0.82;;;0.60;;
74344;SDS011;62776;50.518;6.732;2024-03-23T10:27:59;0.80;;;0.70;;
74344;SDS011;62776;50.518;6.732;2024-03-23T10:30:46;0.60;;;0.60;;
74344;SDS011;62776;50.518;6.732;2024-03-23T10:33:33;0.60;;;0.60;;
74344;SDS011;62776;50.518;6.732;2024-03-23T10:36:20;0.50;;;0.50;;
74344;SDS011;62776;50.518;6.732;2024-03-23T10:39:07;0.80;;;0.80;;
74344;SDS011;62776;50.518;6.732;2024-03-23T10:41:54;0.73;;;0.73;;
74344;SDS011;62776;50.518;6.732;2024-03-23T10:44:43;1.10;;;0.68;;
74344;SDS011;62776;50.518;6.732;2024-03-23T10:47:30;0.60;;;0.60;;
74344;SDS011;62776;50.518;6.732;2024-03-23T10:50:24;0.80;;;0.80;;
74344;SDS011;62776;50.518;6.732;2024-03-23T10:53:11;1.05;;;0.95;;
74344;SDS011;62776;50.518;6.732;2024-03-23T10:56:01;0.90;;;0.90;;
74344;SDS011;62776;50.518;6.732;2024-03-23T10:58:48;1.17;;;1.10;;
74344;SDS011;62776;50.518;6.732;2024-03-23T11:01:42;1.23;;;1.08;;
74344;SDS011;62776;50.518;6.732;2024-03-23T11:04:42;1.50;;;1.40;;
74344;SDS011;62776;50.518;6.732;2024-03-23T11:07:31;1.52;;;1.10;;
74344;SDS011;62776;50.518;6.732;2024-03-23T11:10:30;1.90;;;1.40;;
74344;SDS011;62776;50.518;6.732;2024-03-23T11:13:22;1.55;;;1.45;;
74344;SDS011;62776;50.518;6.732;2024-03-23T11:16:12;1.50;;;1.40;;
74344;SDS011;62776;50.518;6.732;2024-03-23T11:19:34;3.22;;;1.95;;
74344;SDS011;62776;50.518;6.732;2024-03-23T11:22:39;1.00;;;1.00;;
74344;SDS011;62776;50.518;6.732;2024-03-23T11:25:27;2.28;;;1.55;;
74344;SDS011;62776;50.518;6.732;2024-03-23T11:28:15;2.15;;;1.70;;
74344;SDS011;62776;50.518;6.732;2024-03-23T11:31:09;1.67;;;1.30;;
74344;SDS011;62776;50.518;6.732;2024-03-23T11:34:08;1.75;;;1.20;;
74344;SDS011;62776;50.518;6.732;2024-03-23T11:37:03;1.67;;;1.23;;
74344;SDS011;62776;50.518;6.732;2024-03-23T11:39:51;0.90;;;0.80;;
74344;SDS011;62776;50.518;6.732;2024-03-23T11:42:46;1.90;;;1.30;;
74344;SDS011;62776;50.518;6.732;2024-03-23T11:45:42;1.20;;;1.10;;
74344;SDS011;62776;50.518;6.732;2024-03-23T11:48:31;2.55;;;1.40;;
74344;SDS011;62776;50.518;6.732;2024-03-23T11:51:22;1.70;;;1.60;;
74344;SDS011;62776;50.518;6.732;2024-03-23T11:54:10;1.90;;;1.80;;
74344;SDS011;62776;50.518;6.732;2024-03-23T11:56:57;2.75;;;1.73;;
74344;SDS011;62776;50.518;6.732;2024-03-23T11:59:44;2.42;;;1.67;;
74344;SDS011;62776;50.518;6.732;2024-03-23T12:02:30;2.45;;;1.90;;
74344;SDS011;62776;50.518;6.732;2024-03-23T12:05:18;1.88;;;1.60;;
74344;SDS011;62776;50.518;6.732;2024-03-23T12:11:15;1.95;;;1.42;;
74344;SDS011;62776;50.518;6.732;2024-03-23T12:14:06;3.13;;;2.35;;
74344;SDS011;62776;50.518;6.732;2024-03-23T12:16:52;3.40;;;1.85;;
74344;SDS011;62776;50.518;6.732;2024-03-23T12:19:39;2.20;;;1.85;;
74344;SDS011;62776;50.518;6.732;2024-03-23T12:22:27;4.07;;;2.13;;
74344;SDS011;62776;50.518;6.732;2024-03-23T12:25:18;0.98;;;0.98;;
74344;SDS011;62776;50.518;6.732;2024-03-23T12:28:04;2.55;;;2.03;;
74344;SDS011;62776;50.518;6.732;2024-03-23T12:30:51;1.35;;;1.30;;
74344;SDS011;62776;50.518;6.732;2024-03-23T12:33:39;2.20;;;1.65;;
74344;SDS011;62776;50.518;6.732;2024-03-23T12:36:29;1.65;;;1.20;;
74344;SDS011;62776;50.518;6.732;2024-03-23T12:39:15;3.45;;;1.33;;
74344;SDS011;62776;50.518;6.732;2024-03-23T12:42:02;1.13;;;0.82;;
74344;SDS011;62776;50.518;6.732;2024-03-23T12:44:55;1.48;;;1.38;;
74344;SDS011;62776;50.518;6.732;2024-03-23T12:47:41;0.73;;;0.73;;
74344;SDS011;62776;50.518;6.732;2024-03-23T12:50:27;1.30;;;1.10;;
74344;SDS011;62776;50.518;6.732;2024-03-23T12:53:14;2.20;;;1.25;;
74344;SDS011;62776;50.518;6.732;2024-03-23T12:56:02;1.83;;;0.82;;
74344;SDS011;62776;50.518;6.732;2024-03-23T12:58:52;1.15;;;1.15;;
74344;SDS011;62776;50.518;6.732;2024-03-23T13:01:42;2.55;;;1.80;;
74344;SDS011;62776;50.518;6.732;2024-03-23T13:04:28;1.73;;;1.58;;
74344;SDS011;62776;50.518;6.732;2024-03-23T13:07:15;1.20;;;1.10;;
74344;SDS011;62776;50.518;6.732;2024-03-23T13:10:03;1.67;;;1.20;;
74344;SDS011;62776;50.518;6.732;2024-03-23T13:12:51;1.77;;;1.67;;
74344;SDS011;62776;50.518;6.732;2024-03-23T13:15:38;2.67;;;1.50;;
74344;SDS011;62776;50.518;6.732;2024-03-23T13:18:24;2.35;;;1.10;;
74344;SDS011;62776;50.518;6.732;2024-03-23T13:21:11;1.20;;;1.10;;
74344;SDS011;62776;50.518;6.732;2024-03-23T13:23:57;1.00;;;1.00;;
74344;SDS011;62776;50.518;6.732;2024-03-23T13:26:43;1.60;;;1.05;;
74344;SDS011;62776;50.518;6.732;2024-03-23T13:29:30;2.25;;;1.02;;
74344;SDS011;62776;50.518;6.732;2024-03-23T13:32:20;1.77;;;1.58;;
74344;SDS011;62776;50.518;6.732;2024-03-23T13:35:06;1.50;;;1.00;;
74344;SDS011;62776;50.518;6.732;2024-03-23T13:37:52;1.23;;;1.10;;
74344;SDS011;62776;50.518;6.732;2024-03-23T13:40:38;1.10;;;1.00;;
74344;SDS011;62776;50.518;6.732;2024-03-23T13:43:34;1.02;;;0.93;;
74344;SDS011;62776;50.518;6.732;2024-03-23T13:46:20;3.28;;;1.00;;
74344;SDS011;62776;50.518;6.732;2024-03-23T13:49:48;2.30;;;1.20;;
74344;SDS011;62776;50.518;6.732;2024-03-23T13:52:17;0.63;;;0.63;;
74344;SDS011;62776;50.518;6.732;2024-03-23T13:55:07;0.68;;;0.68;;
74344;SDS011;62776;50.518;6.732;2024-03-23T13:57:56;1.70;;;0.60;;
74344;SDS011;62776;50.518;6.732;2024-03-23T14:00:43;1.35;;;0.90;;
74344;SDS011;62776;50.518;6.732;2024-03-23T14:03:30;0.60;;;0.60;;
74344;SDS011;62776;50.518;6.732;2024-03-23T14:06:16;0.80;;;0.80;;
74344;SDS011;62776;50.518;6.732;2024-03-23T14:09:02;0.70;;;0.70;;
74344;SDS011;62776;50.518;6.732;2024-03-23T14:11:49;0.90;;;0.90;;
74344;SDS011;62776;50.518;6.732;2024-03-23T14:14:35;0.80;;;0.80;;
74344;SDS011;62776;50.518;6.732;2024-03-23T14:17:22;1.08;;;1.00;;
74344;SDS011;62776;50.518;6.732;2024-03-23T14:20:08;1.02;;;0.93;;
74344;SDS011;62776;50.518;6.732;2024-03-23T14:22:56;0.77;;;0.77;;
74344;SDS011;62776;50.518;6.732;2024-03-23T14:25:42;2.08;;;0.75;;
74344;SDS011;62776;50.518;6.732;2024-03-23T14:28:28;1.05;;;1.00;;
74344;SDS011;62776;50.518;6.732;2024-03-23T14:31:18;0.80;;;0.80;;
74344;SDS011;62776;50.518;6.732;2024-03-23T14:34:09;0.85;;;0.85;;
74344;SDS011;62776;50.518;6.732;2024-03-23T14:36:55;0.70;;;0.70;;
74344;SDS011;62776;50.518;6.732;2024-03-23T14:39:41;0.98;;;0.98;;
74344;SDS011;62776;50.518;6.732;2024-03-23T14:42:29;1.35;;;0.80;;
74344;SDS011;62776;50.518;6.732;2024-03-23T14:45:18;0.68;;;0.63;;
74344;SDS011;62776;50.518;6.732;2024-03-23T14:48:05;0.70;;;0.60;;
74344;SDS011;62776;50.518;6.732;2024-03-23T14:50:56;1.05;;;0.88;;
74344;SDS011;62776;50.518;6.732;2024-03-23T14:53:45;1.38;;;0.90;;
74344;SDS011;62776;50.518;6.732;2024-03-23T14:56:33;0.68;;;0.68;;
74344;SDS011;62776;50.518;6.732;2024-03-23T14:59:19;0.75;;;0.73;;
74344;SDS011;62776;50.518;6.732;2024-03-23T15:02:07;0.70;;;0.70;;
74344;SDS011;62776;50.518;6.732;2024-03-23T15:04:53;0.60;;;0.60;;
74344;SDS011;62776;50.518;6.732;2024-03-23T15:07:40;1.10;;;0.80;;
74344;SDS011;62776;50.518;6.732;2024-03-23T15:10:26;0.73;;;0.73;;
74344;SDS011;62776;50.518;6.732;2024-03-23T15:13:12;0.70;;;0.70;;
74344;SDS011;62776;50.518;6.732;2024-03-23T15:15:59;0.80;;;0.80;;
74344;SDS011;62776;50.518;6.732;2024-03-23T15:18:46;0.80;;;0.80;;
74344;SDS011;62776;50.518;6.732;2024-03-23T15:21:32;1.83;;;1.05;;
74344;SDS011;62776;50.518;6.732;2024-03-23T15:24:19;0.90;;;0.90;;
74344;SDS011;62776;50.518;6.732;2024-03-23T15:27:05;2.05;;;1.38;;
74344;SDS011;62776;50.518;6.732;2024-03-23T15:29:55;1.38;;;1.05;;
74344;SDS011;62776;50.518;6.732;2024-03-23T15:32:45;1.25;;;1.15;;
74344;SDS011;62776;50.518;6.732;2024-03-23T15:35:32;2.13;;;0.80;;
74344;SDS011;62776;50.518;6.732;2024-03-23T15:38:18;0.75;;;0.70;;
74344;SDS011;62776;50.518;6.732;2024-03-23T15:41:04;0.75;;;0.75;;
74344;SDS011;62776;50.518;6.732;2024-03-23T15:43:51;2.33;;;0.93;;
74344;SDS011;62776;50.518;6.732;2024-03-23T15:46:41;0.93;;;0.93;;
74344;SDS011;62776;50.518;6.732;2024-03-23T15:49:27;0.95;;;0.82;;
74344;SDS011;62776;50.518;6.732;2024-03-23T15:52:14;0.85;;;0.85;;
74344;SDS011;62776;50.518;6.732;2024-03-23T15:55:00;1.08;;;1.02;;
74344;SDS011;62776;50.518;6.732;2024-03-23T15:57:51;0.85;;;0.80;;
74344;SDS011;62776;50.518;6.732;2024-03-23T16:00:39;1.85;;;1.25;;
74344;SDS011;62776;50.518;6.732;2024-03-23T16:03:28;1.75;;;1.15;;
74344;SDS011;62776;50.518;6.732;2024-03-23T16:06:16;0.70;;;0.70;;
74344;SDS011;62776;50.518;6.732;2024-03-23T16:09:03;0.95;;;0.90;;
74344;SDS011;62776;50.518;6.732;2024-03-23T16:11:50;2.53;;;1.10;;
74344;SDS011;62776;50.518;6.732;2024-03-23T16:14:36;1.08;;;0.80;;
74344;SDS011;62776;50.518;6.732;2024-03-23T16:17:22;2.38;;;1.45;;
74344;SDS011;62776;50.518;6.732;2024-03-23T16:20:09;1.48;;;1.10;;
74344;SDS011;62776;50.518;6.732;2024-03-23T16:22:55;0.95;;;0.95;;
74344;SDS011;62776;50.518;6.732;2024-03-23T16:25:52;1.23;;;1.13;;
74344;SDS011;62776;50.518;6.732;2024-03-23T16:28:42;0.70;;;0.70;;
74344;SDS011;62776;50.518;6.732;2024-03-23T16:31:29;1.20;;;0.85;;
74344;SDS011;62776;50.518;6.732;2024-03-23T16:34:16;0.85;;;0.80;;
74344;SDS011;62776;50.518;6.732;2024-03-23T16:37:04;0.77;;;0.77;;
74344;SDS011;62776;50.518;6.732;2024-03-23T16:39:50;0.90;;;0.90;;
74344;SDS011;62776;50.518;6.732;2024-03-23T16:42:36;0.80;;;0.80;;
74344;SDS011;62776;50.518;6.732;2024-03-23T16:45:25;1.10;;;1.00;;
74344;SDS011;62776;50.518;6.732;2024-03-23T16:48:11;0.65;;;0.65;;
74344;SDS011;62776;50.518;6.732;2024-03-23T16:51:01;1.33;;;1.23;;
74344;SDS011;62776;50.518;6.732;2024-03-23T16:53:50;1.67;;;1.52;;
74344;SDS011;62776;50.518;6.732;2024-03-23T16:56:37;1.05;;;1.05;;
74344;SDS011;62776;50.518;6.732;2024-03-23T16:59:23;1.48;;;0.88;;
74344;SDS011;62776;50.518;6.732;2024-03-23T17:02:10;1.10;;;1.00;;
74344;SDS011;62776;50.518;6.732;2024-03-23T17:04:56;1.10;;;1.10;;
74344;SDS011;62776;50.518;6.732;2024-03-23T17:07:42;1.50;;;1.40;;
74344;SDS011;62776;50.518;6.732;2024-03-23T17:10:29;1.02;;;0.88;;
74344;SDS011;62776;50.518;6.732;2024-03-23T17:13:16;1.73;;;0.75;;
74344;SDS011;62776;50.518;6.732;2024-03-23T17:16:04;0.80;;;0.80;;
74344;SDS011;62776;50.518;6.732;2024-03-23T17:18:54;1.00;;;0.90;;
74344;SDS011;62776;50.518;6.732;2024-03-23T17:21:42;1.08;;;0.90;;
74344;SDS011;62776;50.518;6.732;2024-03-23T17:24:29;1.60;;;1.05;;
74344;SDS011;62776;50.518;6.732;2024-03-23T17:27:18;0.98;;;0.80;;
74344;SDS011;62776;50.518;6.732;2024-03-23T17:30:04;1.42;;;1.33;;
74344;SDS011;62776;50.518;6.732;2024-03-23T17:32:51;1.20;;;1.10;;
74344;SDS011;62776;50.518;6.732;2024-03-23T17:35:38;1.23;;;1.08;;
74344;SDS011;62776;50.518;6.732;2024-03-23T17:38:26;0.98;;;0.98;;
74344;SDS011;62776;50.518;6.732;2024-03-23T17:41:12;1.05;;;1.05;;
74344;SDS011;62776;50.518;6.732;2024-03-23T17:43:58;1.17;;;1.08;;
74344;SDS011;62776;50.518;6.732;2024-03-23T17:46:45;0.88;;;0.88;;
74344;SDS011;62776;50.518;6.732;2024-03-23T17:49:32;1.02;;;0.93;;
74344;SDS011;62776;50.518;6.732;2024-03-23T17:52:19;1.02;;;1.00;;
74344;SDS011;62776;50.518;6.732;2024-03-23T17:55:05;2.90;;;1.20;;
74344;SDS011;62776;50.518;6.732;2024-03-23T17:57:52;0.98;;;0.95;;
74344;SDS011;62776;50.518;6.732;2024-03-23T18:00:40;1.10;;;1.00;;
74344;SDS011;62776;50.518;6.732;2024-03-23T18:03:29;1.15;;;1.02;;
74344;SDS011;62776;50.518;6.732;2024-03-23T18:06:16;0.93;;;0.93;;
74344;SDS011;62776;50.518;6.732;2024-03-23T18:09:05;0.98;;;0.80;;